createdAt,value
2022-10-11T00:01:43.481Z,99553.78
2022-10-11T00:04:10.168Z,99554.06
2022-10-11T00:06:40.089Z,99560.53
2022-10-11T00:09:06.970Z,99572.16
2022-10-11T00:11:33.496Z,99573.13
2022-10-11T00:14:00.103Z,99580.59
2022-10-11T00:16:26.682Z,99583.72
2022-10-11T00:18:53.532Z,99584.66
2022-10-11T00:21:21.648Z,99580.69
2022-10-11T00:23:49.045Z,99595.22
2022-10-11T00:26:16.152Z,99597.13
2022-10-11T00:28:43.080Z,99604.69
2022-10-11T00:31:12.000Z,99612.03
2022-10-11T00:33:38.652Z,99603.56
2022-10-11T00:36:07.006Z,99614.34
2022-10-11T00:38:34.463Z,99617.63
2022-10-11T00:41:01.650Z,99609.66
2022-10-11T00:43:31.711Z,99614.50
2022-10-11T00:45:58.258Z,99614.88
2022-10-11T00:48:44.646Z,99620.78
2022-10-11T00:51:20.723Z,99618.38
2022-10-11T00:53:50.167Z,99631.13
2022-10-11T00:56:27.816Z,99622.53
2022-10-11T00:58:55.807Z,99633.59
2022-10-11T01:01:22.512Z,99637.63
2022-10-11T01:03:49.210Z,99633.16
2022-10-11T01:06:16.150Z,99633.47
2022-10-11T01:08:43.420Z,99639.53
2022-10-11T01:11:14.291Z,99642.06
2022-10-11T01:14:02.805Z,99645.31
2022-10-11T01:16:39.244Z,99644.47
2022-10-11T01:19:49.962Z,99649.72
2022-10-11T01:22:45.341Z,99644.66
2022-10-11T01:25:21.441Z,99656.56
2022-10-11T01:28:16.570Z,99661.66
2022-10-11T01:30:43.913Z,99653.66
2022-10-11T01:33:30.123Z,99658.25
2022-10-11T01:36:08.022Z,99657.97
2022-10-11T01:38:42.067Z,99664.38
2022-10-11T01:41:16.538Z,99664.50
2022-10-11T01:43:44.178Z,99664.50
2022-10-11T01:46:12.413Z,99665.13
2022-10-11T01:48:53.463Z,99664.06
2022-10-11T01:51:24.617Z,99666.28
2022-10-11T01:54:27.714Z,99666.69
2022-10-11T01:57:26.384Z,99673.75
2022-10-11T02:00:12.765Z,99678.94
2022-10-11T02:02:48.201Z,99671.91
2022-10-11T02:05:21.490Z,99675.63
2022-10-11T02:07:59.641Z,99677.69
2022-10-11T02:10:48.147Z,99677.06
2022-10-11T02:13:31.617Z,99687.34
2022-10-11T02:16:02.594Z,99683.19
2022-10-11T02:18:34.387Z,99689.44
2022-10-11T02:21:03.981Z,99695.44
2022-10-11T02:23:36.850Z,99697.63
2022-10-11T02:26:06.779Z,99692.91
2022-10-11T02:28:36.874Z,99693.34
2022-10-11T02:31:07.126Z,99693.06
2022-10-11T02:33:43.984Z,99696.59
2022-10-11T02:36:21.866Z,99696.22
2022-10-11T02:38:52.953Z,99700.19
2022-10-11T02:41:30.288Z,99707.63
2022-10-11T02:44:03.579Z,99702.44
2022-10-11T02:46:31.120Z,99698.97
2022-10-11T02:49:01.122Z,99703.84
2022-10-11T02:51:31.497Z,99722.72
2022-10-11T02:53:58.236Z,99720.94
2022-10-11T02:56:24.859Z,99720.94
2022-10-11T02:58:51.401Z,99732.72
2022-10-11T03:01:18.036Z,99727.50
2022-10-11T03:03:44.574Z,99739.19
2022-10-11T03:06:11.164Z,99745.22
2022-10-11T03:08:37.724Z,99744.69
2022-10-11T03:11:04.294Z,99755.06
2022-10-11T03:13:30.846Z,99755.31
2022-10-11T03:16:03.277Z,99760.75
2022-10-11T03:18:33.742Z,99754.13
2022-10-11T03:21:00.302Z,99763.66
2022-10-11T03:23:26.786Z,99768.53
2022-10-11T03:25:53.358Z,99774.16
2022-10-11T03:28:20.539Z,99776.13
2022-10-11T03:30:48.603Z,99784.31
2022-10-11T03:33:15.548Z,99786.88
2022-10-11T03:35:45.268Z,99793.00
2022-10-11T03:38:14.105Z,99799.69
2022-10-11T03:40:41.470Z,99795.56
2022-10-11T03:43:08.077Z,99802.81
2022-10-11T03:45:34.819Z,99803.81
2022-10-11T03:48:01.773Z,99808.50
2022-10-11T03:50:28.618Z,99809.69
2022-10-11T03:52:55.111Z,99809.13
2022-10-11T03:55:21.686Z,99808.44
2022-10-11T03:57:48.287Z,99813.81
2022-10-11T04:00:14.974Z,99819.91
2022-10-11T04:02:41.565Z,99820.50
2022-10-11T04:05:08.431Z,99822.47
2022-10-11T04:07:35.079Z,99822.19
2022-10-11T04:10:01.608Z,99831.84
2022-10-11T04:12:28.209Z,99834.66
2022-10-11T04:14:54.855Z,99836.38
2022-10-11T04:17:21.968Z,99840.47
2022-10-11T04:19:48.447Z,99839.19
2022-10-11T04:22:16.657Z,99848.69
2022-10-11T04:24:43.180Z,99844.44
2022-10-11T04:27:10.389Z,99851.97
2022-10-11T04:29:36.971Z,99846.69
2022-10-11T04:32:03.553Z,99855.47
2022-10-11T04:34:30.145Z,99858.16
2022-10-11T04:36:56.887Z,99864.69
2022-10-11T04:39:23.489Z,99867.44
2022-10-11T04:41:50.064Z,99873.50
2022-10-11T04:44:16.619Z,99872.88
2022-10-11T04:46:43.221Z,99875.69
2022-10-11T04:49:09.953Z,99885.31
2022-10-11T04:51:36.627Z,99885.69
2022-10-11T04:54:03.495Z,99884.63
2022-10-11T04:56:30.664Z,99887.03
2022-10-11T04:58:57.292Z,99888.53
2022-10-11T05:01:23.885Z,99891.50
2022-10-11T05:03:50.433Z,99899.94
2022-10-11T05:06:17.017Z,99894.09
2022-10-11T05:08:43.571Z,99893.44
2022-10-11T05:11:16.132Z,99907.44
2022-10-11T05:13:44.066Z,99902.88
2022-10-11T05:16:11.955Z,99904.59
2022-10-11T05:18:40.072Z,99910.13
2022-10-11T05:21:16.044Z,99915.75
2022-10-11T05:23:42.779Z,99911.50
2022-10-11T05:26:09.825Z,99917.97
2022-10-11T05:28:36.847Z,99915.19
2022-10-11T05:31:04.015Z,99928.22
2022-10-11T05:33:31.336Z,99924.34
2022-10-11T05:35:58.006Z,99938.94
2022-10-11T05:38:24.642Z,99944.06
2022-10-11T05:40:51.660Z,99942.72
2022-10-11T05:43:18.678Z,99938.34
2022-10-11T05:45:45.468Z,99949.31
2022-10-11T05:48:12.591Z,99949.88
2022-10-11T05:50:39.700Z,99952.34
2022-10-11T05:53:06.673Z,99960.13
2022-10-11T05:55:41.842Z,99957.72
2022-10-11T05:58:12.642Z,99965.50
2022-10-11T06:00:39.147Z,99980.22
2022-10-11T06:03:06.995Z,99975.75
2022-10-11T06:05:37.102Z,99983.66
2022-10-11T06:08:06.019Z,99993.25
2022-10-11T06:10:33.029Z,99991.19
2022-10-11T06:12:59.719Z,99997.28
2022-10-11T06:15:26.315Z,99990.00
2022-10-11T06:17:53.228Z,99990.84
2022-10-11T06:20:19.867Z,99993.50
2022-10-11T06:22:46.449Z,99993.03
2022-10-11T06:25:13.089Z,99995.81
2022-10-11T06:27:39.680Z,100001.19
2022-10-11T06:30:07.378Z,100006.94
2022-10-11T06:32:33.995Z,100008.50
2022-10-11T06:35:00.718Z,100008.50
2022-10-11T06:37:27.341Z,100018.00
2022-10-11T06:39:53.889Z,100010.97
2022-10-11T06:42:20.534Z,100014.63
2022-10-11T06:44:47.074Z,100015.47
2022-10-11T06:47:13.735Z,100025.22
2022-10-11T06:49:40.294Z,100021.81
2022-10-11T06:52:06.915Z,100028.41
2022-10-11T06:54:33.556Z,100028.25
2022-10-11T06:57:00.140Z,100035.09
2022-10-11T06:59:26.797Z,100039.31
2022-10-11T07:01:53.404Z,100038.19
2022-10-11T07:04:19.957Z,100038.91
2022-10-11T07:06:46.550Z,100044.00
2022-10-11T07:09:13.113Z,100052.53
2022-10-11T07:11:39.829Z,100050.66
2022-10-11T07:14:07.644Z,100057.13
2022-10-11T07:16:37.930Z,100056.97
2022-10-11T07:19:06.713Z,100059.47
2022-10-11T07:21:35.153Z,100063.16
2022-10-11T07:24:02.514Z,100066.63
2022-10-11T07:26:35.303Z,100068.56
2022-10-11T07:29:04.878Z,100070.19
2022-10-11T07:31:31.561Z,100069.75
2022-10-11T07:33:58.105Z,100069.75
2022-10-11T07:36:25.816Z,100070.00
2022-10-11T07:38:52.589Z,100069.88
2022-10-11T07:41:19.469Z,100072.66
2022-10-11T07:43:47.972Z,100074.53
2022-10-11T07:46:15.038Z,100074.78
2022-10-11T07:48:41.967Z,100082.03
2022-10-11T07:51:14.418Z,100082.56
2022-10-11T07:53:46.939Z,100091.19
2022-10-11T07:56:16.747Z,100087.53
2022-10-11T07:58:43.532Z,100083.16
2022-10-11T08:01:11.236Z,100092.19
2022-10-11T08:03:38.644Z,100079.56
2022-10-11T08:06:09.061Z,100080.56
2022-10-11T08:08:36.811Z,100090.19
2022-10-11T08:11:03.760Z,100083.97
2022-10-11T08:13:30.482Z,100082.50
2022-10-11T08:15:57.733Z,100101.63
2022-10-11T08:18:24.490Z,100089.25
2022-10-11T08:20:51.464Z,100096.50
2022-10-11T08:23:19.503Z,100091.19
2022-10-11T08:25:47.641Z,100093.91
2022-10-11T08:28:17.430Z,100096.88
2022-10-11T08:30:51.327Z,100101.19
2022-10-11T08:33:19.040Z,100097.66
2022-10-11T08:35:45.655Z,100099.56
2022-10-11T08:38:12.924Z,100096.13
2022-10-11T08:40:47.307Z,100097.84
2022-10-11T08:43:46.881Z,100093.94
2022-10-11T08:46:15.975Z,100098.88
2022-10-11T08:48:46.406Z,100096.00
2022-10-11T08:51:33.874Z,100102.41
2022-10-11T08:54:12.500Z,100102.25
2022-10-11T08:56:41.887Z,100099.84
2022-10-11T08:59:11.403Z,100100.97
2022-10-11T09:01:47.541Z,100107.63
2022-10-11T09:04:16.791Z,100104.53
2022-10-11T09:07:01.360Z,100105.19
2022-10-11T09:09:52.831Z,100095.06
2022-10-11T09:12:49.306Z,100098.56
2022-10-11T09:15:35.613Z,100096.00
2022-10-11T09:18:31.582Z,100102.72
2022-10-11T09:21:24.631Z,100099.63
2022-10-11T09:24:14.595Z,100094.69
2022-10-11T09:26:55.056Z,100098.06
2022-10-11T09:29:30.662Z,100100.88
2022-10-11T09:31:58.904Z,100098.16
2022-10-11T09:34:27.642Z,100098.44
2022-10-11T09:37:19.477Z,100097.88
2022-10-11T09:39:54.120Z,100098.22
2022-10-11T09:42:21.030Z,100100.72
2022-10-11T09:44:50.296Z,100097.72
2022-10-11T09:47:18.012Z,100102.47
2022-10-11T09:49:56.136Z,100103.38
2022-10-11T09:52:24.453Z,100103.84
2022-10-11T09:54:55.253Z,100100.84
2022-10-11T09:57:23.761Z,100105.66
2022-10-11T10:00:19.418Z,100098.22
2022-10-11T10:02:49.280Z,100102.63
2022-10-11T10:05:26.174Z,100093.66
2022-10-11T10:08:22.558Z,100094.72
2022-10-11T10:10:59.586Z,100103.94
2022-10-11T10:13:52.174Z,100103.22
2022-10-11T10:16:39.092Z,100111.13
2022-10-11T10:19:21.370Z,100095.84
2022-10-11T10:21:50.625Z,100100.16
2022-10-11T10:24:38.325Z,100099.56
2022-10-11T10:27:10.799Z,100113.66
2022-10-11T10:29:37.990Z,100110.81
2022-10-11T10:32:21.619Z,100119.06
2022-10-11T10:35:06.826Z,100114.06
2022-10-11T10:37:45.889Z,100108.72
2022-10-11T10:40:23.264Z,100118.31
2022-10-11T10:42:51.033Z,100107.59
2022-10-11T10:45:21.734Z,100106.50
2022-10-11T10:48:08.034Z,100098.66
2022-10-11T10:50:55.926Z,100106.19
2022-10-11T10:53:34.308Z,100107.09
2022-10-11T10:56:14.527Z,100106.78
2022-10-11T10:59:00.440Z,100108.84
2022-10-11T11:01:39.741Z,100106.56
2022-10-11T11:04:28.864Z,100104.88
2022-10-11T11:06:59.051Z,100101.06
2022-10-11T11:09:31.826Z,100104.91
2022-10-11T11:12:20.544Z,100099.03
2022-10-11T11:15:11.969Z,100095.56
2022-10-11T11:17:44.536Z,100106.53
2022-10-11T11:20:38.956Z,100113.97
2022-10-11T11:23:22.064Z,100109.69
2022-10-11T11:26:16.551Z,100103.13
2022-10-11T11:29:31.456Z,100098.88
2022-10-11T11:32:08.444Z,100105.13
2022-10-11T11:34:47.046Z,100115.25
2022-10-11T11:37:27.263Z,100106.72
2022-10-11T11:40:02.769Z,100107.47
2022-10-11T11:42:47.063Z,100098.38
2022-10-11T11:45:24.821Z,100100.47
2022-10-11T11:48:01.088Z,100099.63
2022-10-11T11:53:07.558Z,100093.91
2022-10-11T11:56:07.396Z,100099.56
2022-10-11T11:58:53.244Z,100092.84
2022-10-11T12:01:51.500Z,100094.69
2022-10-11T12:04:38.015Z,100085.41
2022-10-11T12:07:16.687Z,100085.06
2022-10-11T12:09:50.553Z,100080.66
2022-10-11T12:12:38.122Z,100079.81
2022-10-11T12:15:53.896Z,100080.97
2022-10-11T12:18:21.240Z,100085.25
2022-10-11T12:21:02.896Z,100075.22
2022-10-11T12:23:29.723Z,100074.78
2022-10-11T12:26:28.844Z,100076.44
2022-10-11T12:29:27.365Z,100070.91
2022-10-11T12:32:00.998Z,100077.59
2022-10-11T12:34:37.161Z,100083.63
2022-10-11T12:37:32.582Z,100076.78
2022-10-11T12:39:59.826Z,100067.38
2022-10-11T12:42:35.185Z,100071.13
2022-10-11T12:45:10.917Z,100069.25
2022-10-11T12:47:42.945Z,100075.75
2022-10-11T12:50:19.743Z,100074.38
2022-10-11T12:53:17.845Z,100075.63
2022-10-11T12:55:59.626Z,100078.69
2022-10-11T12:58:41.626Z,100069.47
2022-10-11T13:01:14.195Z,100071.72
2022-10-11T13:03:53.089Z,100071.13
2022-10-11T13:06:33.707Z,100062.56
2022-10-11T13:09:03.360Z,100070.09
2022-10-11T13:11:33.822Z,100069.34
2022-10-11T13:14:07.743Z,100071.06
2022-10-11T13:17:08.163Z,100072.78
2022-10-11T13:19:36.884Z,100070.16
2022-10-11T13:22:17.271Z,100070.44
2022-10-11T13:24:44.039Z,100072.16
2022-10-11T13:27:20.582Z,100072.81
2022-10-11T13:29:49.109Z,100072.81
2022-10-11T13:32:19.633Z,100071.78
2022-10-11T13:34:50.042Z,100086.75
2022-10-11T13:37:20.793Z,100087.13
2022-10-11T13:39:49.033Z,100078.03
2022-10-11T13:42:17.622Z,100082.31
2022-10-11T13:44:45.862Z,100082.94
2022-10-11T13:47:18.823Z,100084.72
2022-10-11T13:50:33.394Z,100085.88
2022-10-11T13:53:12.094Z,100082.97
2022-10-11T13:55:41.669Z,100079.00
2022-10-11T13:58:18.924Z,100069.97
2022-10-11T14:00:54.993Z,100076.09
2022-10-11T14:03:22.272Z,100083.69
2022-10-11T14:06:00.123Z,100078.19
2022-10-11T14:08:36.623Z,100072.34
2022-10-11T14:11:06.664Z,100080.69
2022-10-11T14:13:37.713Z,100071.81
2022-10-11T14:16:06.156Z,100081.56
2022-10-11T14:18:37.070Z,100078.41
2022-10-11T14:21:18.981Z,100079.47
2022-10-11T14:23:54.615Z,100076.22
2022-10-11T14:26:23.039Z,100073.84
2022-10-11T14:28:54.158Z,100075.09
2022-10-11T14:31:20.938Z,100073.03
2022-10-11T14:33:47.873Z,100069.16
2022-10-11T14:36:14.397Z,100075.16
2022-10-11T14:38:40.966Z,100067.84
2022-10-11T14:41:07.578Z,100075.53
2022-10-11T14:43:34.152Z,100071.88
2022-10-11T14:46:00.812Z,100076.41
2022-10-11T14:48:50.491Z,100079.09
2022-10-11T14:51:15.876Z,100074.28
2022-10-11T14:53:46.308Z,100079.16
2022-10-11T14:56:18.957Z,100075.84
2022-10-11T14:58:47.970Z,100076.69
2022-10-11T15:01:16.767Z,100075.41
2022-10-11T15:03:43.755Z,100077.09
2022-10-11T15:06:18.354Z,100074.50
2022-10-11T15:08:45.145Z,100072.44
2022-10-11T15:11:13.900Z,100068.38
2022-10-11T15:13:44.073Z,100064.25
2022-10-11T15:16:15.042Z,100061.38
2022-10-11T15:18:42.392Z,100067.28
2022-10-11T15:21:13.909Z,100060.47
2022-10-11T15:23:40.584Z,100066.13
2022-10-11T15:26:07.547Z,100071.81
2022-10-11T15:28:34.679Z,100067.59
2022-10-11T15:31:01.305Z,100068.81
2022-10-11T15:33:27.908Z,100070.84
2022-10-11T15:35:54.429Z,100069.06
2022-10-11T15:38:23.921Z,100078.88
2022-10-11T15:40:51.422Z,100076.56
2022-10-11T15:43:23.461Z,100076.59
2022-10-11T15:45:51.180Z,100078.97
2022-10-11T15:48:19.244Z,100076.97
2022-10-11T15:50:46.054Z,100079.88
2022-10-11T15:53:15.350Z,100089.13
2022-10-11T15:55:44.751Z,100086.59
2022-10-11T15:58:23.447Z,100087.59
2022-10-11T16:00:55.300Z,100087.94
2022-10-11T16:03:24.984Z,100092.16
2022-10-11T16:05:52.400Z,100085.63
2022-10-11T16:08:19.013Z,100097.66
2022-10-11T16:10:45.652Z,100092.41
2022-10-11T16:13:12.730Z,100098.94
2022-10-11T16:15:41.091Z,100101.38
2022-10-11T16:18:09.739Z,100094.06
2022-10-11T16:20:41.046Z,100099.41
2022-10-11T16:23:08.055Z,100099.78
2022-10-11T16:25:35.720Z,100095.41
2022-10-11T16:28:03.018Z,100093.25
2022-10-11T16:30:31.988Z,100095.91
2022-10-11T16:32:58.716Z,100096.31
2022-10-11T16:35:28.970Z,100096.94
2022-10-11T16:37:58.172Z,100104.44
2022-10-11T16:40:26.619Z,100103.63
2022-10-11T16:42:53.168Z,100100.47
2022-10-11T16:45:19.840Z,100103.16
2022-10-11T16:47:46.504Z,100109.63
2022-10-11T16:50:13.444Z,100106.50
2022-10-11T16:52:40.031Z,100110.69
2022-10-11T16:55:07.366Z,100111.78
2022-10-11T16:57:34.095Z,100107.63
2022-10-11T17:00:00.738Z,100104.31
2022-10-11T17:02:32.624Z,100104.44
2022-10-11T17:04:59.683Z,100113.19
2022-10-11T17:07:26.783Z,100117.47
2022-10-11T17:09:53.285Z,100111.88
2022-10-11T17:12:23.307Z,100112.59
2022-10-11T17:14:50.514Z,100116.50
2022-10-11T17:17:19.402Z,100124.25
2022-10-11T17:19:47.723Z,100120.94
2022-10-11T17:22:17.843Z,100122.78
2022-10-11T17:24:44.905Z,100116.25
2022-10-11T17:27:11.799Z,100117.56
2022-10-11T17:29:38.892Z,100120.16
2022-10-11T17:32:06.105Z,100118.00
2022-10-11T17:34:33.153Z,100119.31
2022-10-11T17:36:59.653Z,100124.09
2022-10-11T17:39:26.236Z,100122.13
2022-10-11T17:41:53.017Z,100117.38
2022-10-11T17:44:20.208Z,100119.31
2022-10-11T17:46:47.282Z,100128.28
2022-10-11T17:49:14.007Z,100119.13
2022-10-11T17:51:41.626Z,100116.19
2022-10-11T17:54:12.860Z,100114.28
2022-10-11T17:56:41.538Z,100125.44
2022-10-11T17:59:14.565Z,100119.78
2022-10-11T18:01:41.208Z,100116.13
2022-10-11T18:04:10.146Z,100122.66
2022-10-11T18:06:39.324Z,100117.31
2022-10-11T18:09:05.977Z,100119.53
2022-10-11T18:11:33.076Z,100122.56
2022-10-11T18:13:59.771Z,100118.16
2022-10-11T18:16:29.496Z,100123.03
2022-10-11T18:18:57.422Z,100119.25
2022-10-11T18:21:28.768Z,100123.84
2022-10-11T18:24:01.958Z,100118.84
2022-10-11T18:26:30.759Z,100123.03
2022-10-11T18:28:58.249Z,100116.16
2022-10-11T18:31:28.356Z,100124.19
2022-10-11T18:33:55.149Z,100120.25
2022-10-11T18:36:25.076Z,100120.59
2022-10-11T18:38:57.278Z,100112.69
2022-10-11T18:41:30.578Z,100111.91
2022-10-11T18:44:05.742Z,100117.06
2022-10-11T18:46:33.076Z,100113.00
2022-10-11T18:49:02.132Z,100123.31
2022-10-11T18:51:30.167Z,100118.84
2022-10-11T18:54:00.137Z,100125.56
2022-10-11T18:56:28.477Z,100118.53
2022-10-11T18:58:56.542Z,100122.03
2022-10-11T19:01:26.947Z,100115.75
2022-10-11T19:03:59.095Z,100107.00
2022-10-11T19:06:32.833Z,100107.63
2022-10-11T19:09:02.062Z,100110.75
2022-10-11T19:11:28.802Z,100110.31
2022-10-11T19:14:15.936Z,100109.31
2022-10-11T19:16:46.236Z,100118.53
2022-10-11T19:19:13.462Z,100118.31
2022-10-11T19:21:40.031Z,100118.53
2022-10-11T19:24:06.970Z,100108.47
2022-10-11T19:26:36.337Z,100113.28
2022-10-11T19:29:06.464Z,100113.50
2022-10-11T19:31:35.276Z,100112.00
2022-10-11T19:34:02.052Z,100111.59
2022-10-11T19:36:32.551Z,100120.03
2022-10-11T19:39:03.056Z,100119.59
2022-10-11T19:41:29.635Z,100117.47
2022-10-11T19:43:58.190Z,100117.16
2022-10-11T19:46:44.499Z,100118.31
2022-10-11T19:49:14.072Z,100119.91
2022-10-11T19:51:40.723Z,100118.94
2022-10-11T19:54:10.891Z,100123.88
2022-10-11T19:56:37.973Z,100121.56
2022-10-11T19:59:06.454Z,100122.97
2022-10-11T20:01:34.341Z,100128.59
2022-10-11T20:04:03.944Z,100120.66
2022-10-11T20:06:37.918Z,100121.09
2022-10-11T20:09:27.947Z,100127.75
2022-10-11T20:11:52.681Z,100124.88
2022-10-11T20:14:19.243Z,100122.75
2022-10-11T20:16:46.011Z,100134.25
2022-10-11T20:19:12.479Z,100124.59
2022-10-11T20:21:39.245Z,100124.41
2022-10-11T20:24:08.444Z,100124.88
2022-10-11T20:26:35.151Z,100124.22
2022-10-11T20:29:02.524Z,100123.16
2022-10-11T20:31:31.909Z,100117.94
2022-10-11T20:34:02.360Z,100129.25
2022-10-11T20:36:30.351Z,100124.97
2022-10-11T20:38:58.298Z,100128.41
2022-10-11T20:41:27.533Z,100130.94
2022-10-11T20:43:56.360Z,100131.84
2022-10-11T20:46:25.629Z,100130.34
2022-10-11T20:49:00.429Z,100131.47
2022-10-11T20:51:29.927Z,100132.59
2022-10-11T20:53:56.762Z,100130.22
2022-10-11T20:56:23.886Z,100127.22
2022-10-11T20:58:52.546Z,100139.97
2022-10-11T21:01:21.637Z,100136.06
2022-10-11T21:03:48.331Z,100125.19
2022-10-11T21:06:14.939Z,100124.16
2022-10-11T21:08:41.643Z,100131.19
2022-10-11T21:11:09.147Z,100134.66
2022-10-11T21:13:35.889Z,100134.84
2022-10-11T21:16:24.186Z,100131.75
2022-10-11T21:18:54.060Z,100141.78
2022-10-11T21:21:34.850Z,100140.06
2022-10-11T21:24:19.665Z,100142.03
2022-10-11T21:26:46.530Z,100148.38
2022-10-11T21:37:11.048Z,100137.50
2022-10-11T23:09:40.008Z,100144.66
